createdAt,value
2019-03-26T00:00:40.663Z,4.00
2019-03-26T00:01:40.672Z,4.00
2019-03-26T00:02:40.678Z,4.00
2019-03-26T00:03:40.692Z,4.00
2019-03-26T00:04:40.707Z,4.00
2019-03-26T00:05:40.715Z,4.00
2019-03-26T00:06:40.744Z,4.00
2019-03-26T00:07:40.741Z,4.00
2019-03-26T00:08:40.766Z,4.00
2019-03-26T00:09:40.763Z,4.00
2019-03-26T00:10:40.775Z,4.00
2019-03-26T00:11:40.805Z,4.00
2019-03-26T00:12:40.798Z,4.00
2019-03-26T00:13:40.805Z,4.00
2019-03-26T00:14:40.827Z,4.00
2019-03-26T00:15:40.827Z,4.00
2019-03-26T00:16:40.851Z,4.00
2019-03-26T00:17:40.850Z,4.00
2019-03-26T00:18:40.864Z,4.00
2019-03-26T00:19:40.877Z,4.00
2019-03-26T00:20:40.890Z,4.00
2019-03-26T00:21:40.907Z,4.00
2019-03-26T00:22:40.912Z,4.00
2019-03-26T00:23:40.933Z,4.00
2019-03-26T00:24:40.944Z,4.00
2019-03-26T00:25:40.942Z,4.00
2019-03-26T00:26:40.956Z,4.00
2019-03-26T00:27:40.966Z,4.00
2019-03-26T00:28:40.980Z,4.00
2019-03-26T00:29:41.005Z,4.00
2019-03-26T00:30:41.018Z,4.00
2019-03-26T00:31:41.025Z,4.00
2019-03-26T00:32:41.027Z,4.00
2019-03-26T00:33:41.034Z,4.00
2019-03-26T00:34:41.046Z,4.00
2019-03-26T00:35:41.058Z,4.00
2019-03-26T00:36:41.071Z,4.00
2019-03-26T00:37:41.079Z,4.00
2019-03-26T00:38:41.108Z,4.00
2019-03-26T00:39:41.105Z,4.00
2019-03-26T00:40:41.124Z,4.00
2019-03-26T00:41:41.132Z,4.00
2019-03-26T00:42:41.142Z,4.00
2019-03-26T00:43:41.159Z,4.00
2019-03-26T00:44:41.174Z,4.00
2019-03-26T00:45:41.173Z,4.00
2019-03-26T00:46:41.187Z,4.00
2019-03-26T00:47:41.199Z,4.00
2019-03-26T00:48:41.216Z,4.00
2019-03-26T00:49:41.322Z,4.00
2019-03-26T00:50:41.231Z,4.00
2019-03-26T00:51:41.245Z,4.00
2019-03-26T00:52:41.263Z,4.00
2019-03-26T00:53:41.266Z,4.00
2019-03-26T00:54:41.289Z,4.00
2019-03-26T00:55:41.372Z,4.00
2019-03-26T00:56:41.315Z,4.00
2019-03-26T00:57:41.321Z,4.00
2019-03-26T00:58:41.333Z,4.00
2019-03-26T00:59:41.339Z,4.00
2019-03-26T01:00:41.701Z,4.00
2019-03-26T01:01:41.791Z,4.00
2019-03-26T01:02:41.376Z,4.00
2019-03-26T01:03:41.384Z,4.00
2019-03-26T01:04:41.396Z,4.00
2019-03-26T01:05:41.413Z,4.00
2019-03-26T01:06:41.438Z,4.00
2019-03-26T01:07:41.440Z,4.00
2019-03-26T01:08:41.443Z,4.00
2019-03-26T01:09:41.452Z,4.00
2019-03-26T01:10:41.471Z,4.00
2019-03-26T01:11:41.477Z,4.00
2019-03-26T01:12:41.498Z,4.00
2019-03-26T01:13:41.500Z,4.00
2019-03-26T01:14:41.510Z,4.00
2019-03-26T01:15:41.530Z,4.00
2019-03-26T01:16:41.536Z,4.00
2019-03-26T01:17:41.557Z,4.00
2019-03-26T01:18:41.572Z,4.00
2019-03-26T01:19:41.576Z,4.00
2019-03-26T01:20:41.585Z,4.00
2019-03-26T01:21:41.589Z,4.00
2019-03-26T01:22:41.613Z,4.00
2019-03-26T01:23:41.615Z,4.00
2019-03-26T01:24:41.626Z,4.00
2019-03-26T01:25:41.637Z,4.00
2019-03-26T01:26:41.647Z,4.00
2019-03-26T01:27:41.685Z,4.00
2019-03-26T01:28:41.673Z,4.00
2019-03-26T01:29:41.679Z,4.00
2019-03-26T01:30:41.695Z,4.00
2019-03-26T01:31:41.706Z,4.00
2019-03-26T01:32:41.719Z,4.00
2019-03-26T01:33:41.733Z,4.00
2019-03-26T01:34:46.188Z,4.00
2019-03-26T01:35:41.753Z,4.00
2019-03-26T01:36:41.765Z,4.00
2019-03-26T01:37:41.773Z,4.00
2019-03-26T01:38:41.790Z,4.00
2019-03-26T01:39:41.803Z,4.00
2019-03-26T01:40:41.816Z,4.00
2019-03-26T01:41:41.818Z,4.00
2019-03-26T01:42:41.834Z,4.00
2019-03-26T01:43:41.850Z,4.00
2019-03-26T01:44:41.859Z,4.00
2019-03-26T01:45:41.944Z,4.00
2019-03-26T01:46:41.897Z,4.00
2019-03-26T01:47:41.888Z,4.00
2019-03-26T01:48:41.900Z,4.00
2019-03-26T01:49:41.910Z,4.00
2019-03-26T01:50:41.944Z,4.00
2019-03-26T01:51:41.944Z,4.00
2019-03-26T01:52:41.953Z,4.00
2019-03-26T01:53:41.961Z,4.00
2019-03-26T01:54:41.967Z,4.00
2019-03-26T01:55:42.020Z,4.00
2019-03-26T01:56:41.999Z,4.00
2019-03-26T01:57:42.004Z,4.00
2019-03-26T01:58:42.013Z,4.00
2019-03-26T01:59:42.033Z,4.00
2019-03-26T02:00:42.034Z,4.00
2019-03-26T02:01:42.048Z,4.00
2019-03-26T02:02:42.058Z,4.00
2019-03-26T02:03:42.073Z,4.00
2019-03-26T02:04:42.082Z,4.00
2019-03-26T02:05:42.095Z,4.00
2019-03-26T02:06:42.109Z,4.00
2019-03-26T02:07:42.140Z,4.00
2019-03-26T02:08:42.132Z,4.00
2019-03-26T02:09:42.144Z,4.00
2019-03-26T02:10:42.157Z,4.00
2019-03-26T02:11:42.174Z,4.00
2019-03-26T02:12:42.174Z,4.00
2019-03-26T02:13:42.195Z,4.00
2019-03-26T02:14:42.203Z,4.00
2019-03-26T02:15:42.214Z,4.00
2019-03-26T02:16:42.217Z,4.00
2019-03-26T02:17:42.228Z,4.00
2019-03-26T02:18:42.245Z,4.00
2019-03-26T02:19:42.256Z,4.00
2019-03-26T02:20:42.264Z,4.00
2019-03-26T02:21:42.279Z,4.00
2019-03-26T02:22:42.341Z,4.00
2019-03-26T02:23:42.299Z,4.00
2019-03-26T02:24:42.311Z,4.00
2019-03-26T02:25:42.320Z,4.00
2019-03-26T02:26:42.338Z,4.00
2019-03-26T02:27:42.349Z,4.00
2019-03-26T02:28:42.356Z,4.00
2019-03-26T02:29:42.371Z,4.00
2019-03-26T02:30:42.380Z,4.00
2019-03-26T02:31:42.392Z,4.00
2019-03-26T02:32:42.409Z,4.00
2019-03-26T02:33:42.413Z,4.00
2019-03-26T02:34:42.424Z,4.00
2019-03-26T02:35:42.435Z,4.00
2019-03-26T02:36:42.675Z,4.00
2019-03-26T02:37:42.464Z,4.00
2019-03-26T02:38:42.467Z,4.00
2019-03-26T02:39:42.479Z,4.00
2019-03-26T02:40:42.489Z,4.00
2019-03-26T02:41:42.509Z,4.00
2019-03-26T02:42:42.512Z,4.00
2019-03-26T02:43:42.524Z,4.00
2019-03-26T02:44:42.539Z,4.00
2019-03-26T02:45:42.550Z,4.00
2019-03-26T02:46:42.561Z,4.00
2019-03-26T02:47:42.571Z,4.00
2019-03-26T02:48:42.602Z,4.00
2019-03-26T02:49:42.593Z,4.00
2019-03-26T02:50:42.610Z,4.00
2019-03-26T02:51:42.630Z,4.00
2019-03-26T02:52:42.626Z,4.00
2019-03-26T02:53:42.638Z,4.00
2019-03-26T02:54:42.650Z,4.00
2019-03-26T02:55:42.658Z,4.00
2019-03-26T02:56:42.679Z,4.00
2019-03-26T02:57:42.691Z,4.00
2019-03-26T02:58:42.695Z,4.00
2019-03-26T02:59:42.707Z,4.00
2019-03-26T03:00:42.717Z,4.00
2019-03-26T03:01:42.728Z,4.00
2019-03-26T03:02:42.740Z,4.00
2019-03-26T03:03:42.759Z,4.00
2019-03-26T03:04:42.767Z,4.00
2019-03-26T03:05:42.871Z,4.00
2019-03-26T03:06:42.791Z,4.00
2019-03-26T03:07:42.796Z,4.00
2019-03-26T03:08:42.846Z,4.00
2019-03-26T03:09:42.825Z,4.00
2019-03-26T03:10:42.832Z,4.00
2019-03-26T03:11:42.847Z,4.00
2019-03-26T03:12:42.865Z,4.00
2019-03-26T03:13:42.868Z,4.00
2019-03-26T03:14:42.880Z,4.00
2019-03-26T03:15:42.904Z,4.00
2019-03-26T03:16:42.899Z,4.00
2019-03-26T03:17:42.909Z,4.00
2019-03-26T03:18:42.923Z,4.00
2019-03-26T03:19:42.933Z,4.00
2019-03-26T03:20:42.950Z,4.00
2019-03-26T03:21:42.953Z,4.00
2019-03-26T03:22:42.967Z,4.00
2019-03-26T03:23:42.986Z,4.00
2019-03-26T03:24:42.990Z,4.00
2019-03-26T03:25:43.005Z,4.00
2019-03-26T03:26:43.012Z,4.00
2019-03-26T03:27:43.033Z,4.00
2019-03-26T03:28:43.053Z,4.00
2019-03-26T03:29:43.052Z,4.00
2019-03-26T03:30:43.058Z,4.00
2019-03-26T03:31:43.070Z,4.00
2019-03-26T03:32:43.094Z,4.00
2019-03-26T03:33:43.092Z,4.00
2019-03-26T03:34:43.118Z,4.00
2019-03-26T03:35:52.119Z,4.00
2019-03-26T03:36:43.129Z,4.00
2019-03-26T03:37:43.190Z,4.00
2019-03-26T03:38:43.280Z,4.00
2019-03-26T03:39:43.871Z,4.00
2019-03-26T03:40:43.185Z,4.00
2019-03-26T03:41:43.185Z,4.00
2019-03-26T03:42:43.196Z,4.00
2019-03-26T03:43:43.211Z,4.00
2019-03-26T03:44:43.221Z,4.00
2019-03-26T03:45:43.235Z,4.00
2019-03-26T03:46:43.242Z,4.00
2019-03-26T03:47:43.259Z,4.00
2019-03-26T03:48:43.277Z,4.00
2019-03-26T03:49:43.281Z,4.00
2019-03-26T03:50:43.293Z,4.00
2019-03-26T03:51:43.306Z,4.00
2019-03-26T03:52:43.312Z,4.00
2019-03-26T03:53:43.322Z,4.00
2019-03-26T03:54:43.337Z,4.00
2019-03-26T03:55:43.349Z,4.00
2019-03-26T03:56:43.359Z,4.00
2019-03-26T03:57:43.368Z,4.00
2019-03-26T03:58:43.386Z,4.00
2019-03-26T03:59:43.398Z,4.00
2019-03-26T04:00:43.464Z,4.00
2019-03-26T04:01:43.420Z,4.00
2019-03-26T04:02:43.478Z,4.00
2019-03-26T04:03:43.438Z,4.00
2019-03-26T04:04:43.454Z,4.00
2019-03-26T04:05:43.463Z,4.00
2019-03-26T04:06:43.481Z,4.00
2019-03-26T04:07:43.502Z,4.00
2019-03-26T04:08:43.611Z,4.00
2019-03-26T04:09:43.632Z,4.00
2019-03-26T04:10:43.943Z,4.00
2019-03-26T04:11:43.538Z,4.00
2019-03-26T04:12:44.343Z,4.00
2019-03-26T04:13:43.612Z,4.00
2019-03-26T04:14:43.562Z,4.00
2019-03-26T04:15:43.584Z,4.00
2019-03-26T04:16:43.587Z,4.00
2019-03-26T04:17:43.598Z,4.00
2019-03-26T04:18:43.610Z,4.00
2019-03-26T04:19:43.619Z,4.00
2019-03-26T04:20:43.638Z,4.00
2019-03-26T04:21:43.654Z,4.00
2019-03-26T04:22:43.660Z,4.00
2019-03-26T04:23:43.676Z,4.00
2019-03-26T04:24:43.684Z,4.00
2019-03-26T04:25:43.704Z,4.00
2019-03-26T04:26:43.712Z,4.00
2019-03-26T04:27:43.720Z,4.00
2019-03-26T04:28:43.728Z,4.00
2019-03-26T04:29:43.742Z,4.00
2019-03-26T04:30:43.748Z,4.00
2019-03-26T04:31:43.761Z,4.00
2019-03-26T04:32:43.775Z,4.00
2019-03-26T04:33:43.781Z,4.00
2019-03-26T04:34:43.796Z,4.00
2019-03-26T04:35:43.808Z,4.00
2019-03-26T04:36:43.821Z,4.00
2019-03-26T04:37:43.826Z,4.00
2019-03-26T04:38:43.844Z,4.00
2019-03-26T04:39:43.895Z,4.00
2019-03-26T04:40:43.916Z,4.00
2019-03-26T04:41:44.099Z,4.00
2019-03-26T04:42:44.487Z,4.00
2019-03-26T04:43:43.901Z,4.00
2019-03-26T04:44:43.908Z,4.00
2019-03-26T04:45:43.915Z,4.00
2019-03-26T04:46:43.932Z,4.00
2019-03-26T04:47:43.945Z,4.00
2019-03-26T04:48:43.966Z,4.00
2019-03-26T04:49:43.962Z,4.00
2019-03-26T04:50:43.980Z,4.00
2019-03-26T04:51:43.996Z,4.00
2019-03-26T04:52:43.998Z,4.00
2019-03-26T04:53:44.010Z,0.00
2019-03-26T04:54:44.028Z,4.00
2019-03-26T04:55:44.038Z,4.00
2019-03-26T04:56:44.046Z,4.00
2019-03-26T04:57:44.064Z,4.00
2019-03-26T04:58:44.148Z,4.00
2019-03-26T04:59:44.083Z,4.00
2019-03-26T05:00:44.091Z,4.00
2019-03-26T05:01:44.102Z,4.00
2019-03-26T05:02:44.114Z,8.00
2019-03-26T05:03:44.126Z,8.00
2019-03-26T05:04:44.136Z,8.00
2019-03-26T05:05:44.167Z,8.00
2019-03-26T05:06:44.157Z,8.00
2019-03-26T05:07:44.184Z,8.00
2019-03-26T05:08:44.184Z,12.00
2019-03-26T05:09:44.191Z,12.00
2019-03-26T05:10:44.207Z,12.00
2019-03-26T05:11:44.233Z,16.00
2019-03-26T05:12:44.252Z,16.00
2019-03-26T05:13:44.236Z,16.00
2019-03-26T05:14:44.266Z,20.00
2019-03-26T05:15:44.371Z,28.00
2019-03-26T05:16:44.281Z,28.00
2019-03-26T05:17:44.284Z,32.00
2019-03-26T05:18:44.294Z,32.00
2019-03-26T05:19:44.310Z,36.00
2019-03-26T05:20:44.315Z,40.00
2019-03-26T05:21:44.329Z,44.00
2019-03-26T05:22:44.340Z,44.00
2019-03-26T05:23:44.356Z,48.00
2019-03-26T05:24:44.385Z,56.00
2019-03-26T05:25:44.374Z,56.00
2019-03-26T05:27:45.747Z,68.00
2019-03-26T05:28:44.415Z,76.00
2019-03-26T05:29:44.416Z,76.00
2019-03-26T05:30:44.430Z,80.00
2019-03-26T05:31:44.442Z,80.00
2019-03-26T05:32:44.449Z,88.00
2019-03-26T05:33:44.467Z,92.00
2019-03-26T05:34:44.473Z,104.00
2019-03-26T05:35:44.481Z,112.00
2019-03-26T05:36:51.297Z,120.00
2019-03-26T05:37:44.515Z,132.00
2019-03-26T05:38:44.527Z,148.00
2019-03-26T05:39:44.529Z,168.00
2019-03-26T05:40:44.619Z,188.00
2019-03-26T05:41:44.560Z,200.00
2019-03-26T05:42:44.577Z,208.00
2019-03-26T05:43:44.650Z,208.00
2019-03-26T05:44:44.589Z,212.00
2019-03-26T05:45:44.607Z,220.00
2019-03-26T05:46:44.610Z,232.00
2019-03-26T05:47:44.632Z,240.00
2019-03-26T05:48:44.631Z,244.00
2019-03-26T05:49:44.746Z,248.00
2019-03-26T05:50:44.655Z,240.00
2019-03-26T05:51:44.764Z,236.00
2019-03-26T05:52:44.723Z,228.00
2019-03-26T05:53:44.695Z,232.00
2019-03-26T05:54:44.706Z,244.00
2019-03-26T05:55:44.717Z,256.00
2019-03-26T05:56:44.740Z,264.00
2019-03-26T05:57:44.737Z,280.00
2019-03-26T05:58:44.753Z,284.00
2019-03-26T05:59:44.758Z,292.00
2019-03-26T06:00:45.111Z,292.00
2019-03-26T06:01:44.778Z,304.00
2019-03-26T06:02:44.798Z,320.00
2019-03-26T06:03:44.799Z,352.00
2019-03-26T06:04:44.819Z,372.00
2019-03-26T06:05:44.844Z,396.00
2019-03-26T06:06:44.840Z,408.00
2019-03-26T06:07:44.849Z,416.00
2019-03-26T06:08:44.861Z,416.00
2019-03-26T06:09:44.876Z,420.00
2019-03-26T06:10:44.995Z,424.00
2019-03-26T06:11:44.898Z,432.00
2019-03-26T06:12:44.904Z,440.00
2019-03-26T06:13:44.911Z,460.00
2019-03-26T06:14:44.927Z,464.00
2019-03-26T06:15:44.951Z,472.00
2019-03-26T06:16:44.949Z,456.00
2019-03-26T06:17:44.959Z,444.00
2019-03-26T06:18:44.971Z,444.00
2019-03-26T06:19:44.986Z,448.00
2019-03-26T06:20:45.295Z,460.00
2019-03-26T06:21:45.008Z,480.00
2019-03-26T06:22:45.020Z,512.00
2019-03-26T06:24:45.880Z,572.00
2019-03-26T06:25:45.637Z,588.00
2019-03-26T06:26:45.062Z,600.00
2019-03-26T06:27:45.073Z,588.00
2019-03-26T06:28:45.081Z,580.00
2019-03-26T06:29:45.123Z,568.00
2019-03-26T06:30:45.124Z,556.00
2019-03-26T06:31:45.120Z,548.00
2019-03-26T06:32:45.132Z,552.00
2019-03-26T06:33:45.143Z,560.00
2019-03-26T06:34:45.155Z,572.00
2019-03-26T06:35:45.163Z,584.00
2019-03-26T06:36:45.225Z,604.00
2019-03-26T06:37:45.196Z,612.00
2019-03-26T06:38:46.367Z,588.00
2019-03-26T06:39:45.217Z,544.00
2019-03-26T06:40:45.221Z,508.00
2019-03-26T06:41:45.235Z,520.00
2019-03-26T06:42:45.254Z,552.00
2019-03-26T06:43:45.257Z,596.00
2019-03-26T06:44:45.271Z,636.00
2019-03-26T06:45:45.329Z,696.00
2019-03-26T06:46:45.315Z,772.00
2019-03-26T06:47:45.331Z,780.00
2019-03-26T06:48:45.375Z,708.00
2019-03-26T06:49:45.328Z,620.00
2019-03-26T06:50:45.353Z,600.00
2019-03-26T06:51:45.461Z,684.00
2019-03-26T06:52:45.365Z,868.00
2019-03-26T06:53:45.380Z,996.00
2019-03-26T06:54:45.386Z,1068.00
2019-03-26T06:55:45.403Z,1072.00
2019-03-26T06:56:45.406Z,1064.00
2019-03-26T06:57:45.893Z,1076.00
2019-03-26T06:58:46.270Z,1080.00
2019-03-26T06:59:45.437Z,1068.00
2019-03-26T07:00:45.453Z,1060.00
2019-03-26T07:01:45.465Z,1048.00
2019-03-26T07:02:45.485Z,1020.00
2019-03-26T07:03:45.488Z,944.00
2019-03-26T07:04:45.500Z,868.00
2019-03-26T07:05:45.506Z,860.00
2019-03-26T07:06:45.523Z,892.00
2019-03-26T07:07:45.538Z,912.00
2019-03-26T07:08:45.548Z,920.00
2019-03-26T07:09:45.556Z,944.00
2019-03-26T07:10:45.572Z,972.00
2019-03-26T07:11:45.576Z,1052.00
2019-03-26T07:12:45.655Z,1136.00
2019-03-26T07:13:45.603Z,1164.00
2019-03-26T07:14:45.639Z,1204.00
2019-03-26T07:15:45.625Z,1232.00
2019-03-26T07:16:45.634Z,1272.00
2019-03-26T07:17:45.660Z,1320.00
2019-03-26T07:18:45.821Z,1348.00
2019-03-26T07:19:45.694Z,1328.00
2019-03-26T07:20:45.700Z,1316.00
2019-03-26T07:21:49.807Z,1304.00
2019-03-26T07:22:46.289Z,1280.00
2019-03-26T07:23:45.773Z,1280.00
2019-03-26T07:24:45.884Z,1320.00
2019-03-26T07:25:45.840Z,1380.00
2019-03-26T07:26:45.803Z,1500.00
2019-03-26T07:27:45.897Z,1616.00
2019-03-26T07:28:46.670Z,1636.00
2019-03-26T07:29:46.662Z,1624.00
2019-03-26T07:30:45.796Z,1624.00
2019-03-26T07:31:45.806Z,1612.00
2019-03-26T07:32:45.827Z,1620.00
2019-03-26T07:33:45.839Z,1640.00
2019-03-26T07:34:45.842Z,1636.00
2019-03-26T07:35:45.856Z,1600.00
2019-03-26T07:36:45.871Z,1592.00
2019-03-26T07:37:45.989Z,1652.00
2019-03-26T07:38:45.899Z,1712.00
2019-03-26T07:39:45.914Z,1772.00
2019-03-26T07:40:45.923Z,1788.00
2019-03-26T07:41:45.921Z,1764.00
2019-03-26T07:42:45.935Z,1704.00
2019-03-26T07:43:45.941Z,1740.00
2019-03-26T07:44:45.953Z,1816.00
2019-03-26T07:45:45.961Z,1852.00
2019-03-26T07:46:45.990Z,1908.00
2019-03-26T07:47:45.988Z,2008.00
2019-03-26T07:48:46.007Z,2096.00
2019-03-26T07:49:46.008Z,2124.00
2019-03-26T07:50:46.057Z,2132.00
2019-03-26T07:51:46.278Z,2140.00
2019-03-26T07:52:46.302Z,2160.00
2019-03-26T07:53:46.058Z,2172.00
2019-03-26T07:54:46.069Z,2256.00
2019-03-26T07:55:46.206Z,2352.00
2019-03-26T07:56:46.097Z,2452.00
2019-03-26T07:57:46.204Z,2492.00
2019-03-26T07:58:46.583Z,2612.00
2019-03-26T07:59:46.424Z,2636.00
2019-03-26T08:00:46.833Z,2596.00
2019-03-26T08:01:46.391Z,2760.00
2019-03-26T08:02:46.193Z,2496.00
2019-03-26T08:03:46.175Z,2444.00
2019-03-26T08:04:47.865Z,2372.00
2019-03-26T08:05:46.205Z,2372.00
2019-03-26T08:06:46.238Z,2396.00
2019-03-26T08:07:57.811Z,2388.00
2019-03-26T08:08:46.236Z,2428.00
2019-03-26T08:09:46.251Z,2592.00
2019-03-26T08:10:46.504Z,2772.00
2019-03-26T08:11:46.269Z,2868.00
2019-03-26T08:12:46.315Z,2848.00
2019-03-26T08:13:46.306Z,2856.00
2019-03-26T08:14:46.328Z,2820.00
2019-03-26T08:15:46.340Z,2764.00
2019-03-26T08:16:46.350Z,2640.00
2019-03-26T08:17:46.343Z,2604.00
2019-03-26T08:18:46.391Z,2372.00
2019-03-26T08:19:46.366Z,2412.00
2019-03-26T08:20:46.379Z,2560.00
2019-03-26T08:21:46.402Z,2684.00
2019-03-26T08:22:46.411Z,2660.00
2019-03-26T08:23:46.439Z,2536.00
2019-03-26T08:24:46.454Z,2408.00
2019-03-26T08:25:46.440Z,2352.00
2019-03-26T08:26:46.457Z,2424.00
2019-03-26T08:27:46.466Z,2464.00
2019-03-26T08:28:46.491Z,2528.00
2019-03-26T08:29:46.487Z,2504.00
2019-03-26T08:30:46.511Z,2456.00
2019-03-26T08:31:46.521Z,2480.00
2019-03-26T08:33:47.141Z,2828.00
2019-03-26T08:34:46.951Z,2920.00
2019-03-26T08:35:46.792Z,2964.00
2019-03-26T08:36:46.590Z,2996.00
2019-03-26T08:37:46.591Z,3072.00
2019-03-26T08:38:46.601Z,3268.00
2019-03-26T08:39:46.626Z,3244.00
2019-03-26T08:40:46.626Z,3212.00
2019-03-26T08:41:46.639Z,3196.00
2019-03-26T08:42:46.649Z,3412.00
2019-03-26T08:43:46.668Z,3616.00
2019-03-26T08:44:46.686Z,3932.00
2019-03-26T08:45:46.698Z,3836.00
2019-03-26T08:46:46.799Z,4004.00
2019-03-26T08:47:46.845Z,4180.00
2019-03-26T08:48:46.738Z,4204.00
2019-03-26T08:49:46.810Z,4228.00
2019-03-26T08:50:46.767Z,3732.00
2019-03-26T08:51:46.794Z,3708.00
2019-03-26T08:52:46.836Z,3640.00
2019-03-26T08:53:46.791Z,3584.00
2019-03-26T08:54:46.812Z,3656.00
2019-03-26T08:55:46.814Z,3656.00
2019-03-26T08:56:46.886Z,3648.00
2019-03-26T08:57:46.844Z,3504.00
2019-03-26T08:58:46.854Z,3288.00
2019-03-26T08:59:46.868Z,3052.00
2019-03-26T09:00:47.418Z,2796.00
2019-03-26T09:01:47.727Z,2476.00
2019-03-26T09:02:46.904Z,2128.00
2019-03-26T09:03:46.920Z,1868.00
2019-03-26T09:04:47.502Z,1784.00
2019-03-26T09:05:46.955Z,1864.00
2019-03-26T09:06:46.953Z,1956.00
2019-03-26T09:07:46.984Z,1980.00
2019-03-26T09:08:47.033Z,1924.00
2019-03-26T09:09:47.065Z,2004.00
2019-03-26T09:10:52.003Z,2184.00
2019-03-26T09:11:47.019Z,2288.00
2019-03-26T09:12:47.035Z,2272.00
2019-03-26T09:13:47.056Z,2244.00
2019-03-26T09:14:47.062Z,2320.00
2019-03-26T09:15:47.095Z,2380.00
2019-03-26T09:16:47.979Z,2332.00
2019-03-26T09:17:47.094Z,2208.00
2019-03-26T09:18:47.101Z,2048.00
2019-03-26T09:19:47.119Z,1864.00
2019-03-26T09:20:47.141Z,1696.00
2019-03-26T09:21:47.135Z,1572.00
2019-03-26T09:22:47.177Z,1480.00
2019-03-26T09:23:47.160Z,1424.00
2019-03-26T09:24:47.176Z,1436.00
2019-03-26T09:25:47.556Z,1496.00
2019-03-26T09:26:47.199Z,1580.00
2019-03-26T09:27:47.218Z,1624.00
2019-03-26T09:28:48.022Z,1616.00
2019-03-26T09:29:47.270Z,1592.00
2019-03-26T09:30:47.250Z,1600.00
2019-03-26T09:31:47.275Z,1784.00
2019-03-26T09:32:47.288Z,1984.00
2019-03-26T09:33:47.284Z,1996.00
2019-03-26T09:34:47.297Z,1872.00
2019-03-26T09:35:47.321Z,1696.00
2019-03-26T09:36:48.037Z,1624.00
2019-03-26T09:37:47.357Z,1572.00
2019-03-26T09:38:47.402Z,1592.00
2019-03-26T09:39:47.368Z,1632.00
2019-03-26T09:40:47.382Z,1668.00
2019-03-26T09:41:47.390Z,1720.00
2019-03-26T09:42:47.599Z,1856.00
2019-03-26T09:43:47.745Z,1888.00
2019-03-26T09:44:47.546Z,1956.00
2019-03-26T09:45:47.936Z,2012.00
2019-03-26T09:46:47.457Z,2128.00
2019-03-26T09:47:47.890Z,2272.00
2019-03-26T09:48:47.469Z,2336.00
2019-03-26T09:49:47.478Z,2304.00
2019-03-26T09:50:47.491Z,2388.00
2019-03-26T09:51:47.500Z,2540.00
2019-03-26T09:52:47.522Z,2724.00
2019-03-26T09:53:47.532Z,3060.00
2019-03-26T09:54:47.542Z,3440.00
2019-03-26T09:55:47.572Z,3564.00
2019-03-26T09:56:47.577Z,3500.00
2019-03-26T09:57:47.580Z,3212.00
2019-03-26T09:58:47.616Z,2844.00
2019-03-26T09:59:47.599Z,2576.00
2019-03-26T10:00:47.837Z,2476.00
2019-03-26T10:01:47.624Z,2396.00
2019-03-26T10:02:47.644Z,2344.00
2019-03-26T10:03:47.651Z,2316.00
2019-03-26T10:04:47.667Z,2268.00
2019-03-26T10:05:47.683Z,2088.00
2019-03-26T10:06:47.685Z,1848.00
2019-03-26T10:07:47.701Z,1708.00
2019-03-26T10:09:47.734Z,1600.00
2019-03-26T10:10:47.745Z,1692.00
2019-03-26T10:11:47.757Z,1864.00
2019-03-26T10:12:48.009Z,2156.00
2019-03-26T10:14:48.343Z,2660.00
2019-03-26T10:15:48.587Z,2868.00
2019-03-26T10:16:49.286Z,3016.00
2019-03-26T10:17:48.516Z,3116.00
2019-03-26T10:18:48.728Z,3192.00
2019-03-26T10:19:48.664Z,3324.00
2019-03-26T10:20:48.550Z,3524.00
2019-03-26T10:21:48.436Z,3444.00
2019-03-26T10:23:48.052Z,3092.00
2019-03-26T10:24:47.920Z,3400.00
2019-03-26T10:25:47.942Z,3836.00
2019-03-26T10:27:47.959Z,4080.00
2019-03-26T10:28:48.003Z,4124.00
2019-03-26T10:29:47.979Z,4248.00
2019-03-26T10:30:47.980Z,4516.00
2019-03-26T10:31:48.006Z,4688.00
2019-03-26T10:32:48.141Z,4780.00
2019-03-26T10:33:48.018Z,4652.00
2019-03-26T10:34:48.033Z,4316.00
2019-03-26T10:35:48.071Z,4028.00
2019-03-26T10:36:48.058Z,3836.00
2019-03-26T10:37:48.084Z,3544.00
2019-03-26T10:38:48.100Z,3372.00
2019-03-26T10:39:48.106Z,3300.00
2019-03-26T10:40:48.110Z,3412.00
2019-03-26T10:41:48.126Z,3720.00
2019-03-26T10:42:48.146Z,3940.00
2019-03-26T10:43:48.329Z,3908.00
2019-03-26T10:44:48.174Z,3836.00
2019-03-26T10:45:48.175Z,4008.00
2019-03-26T10:46:48.280Z,4324.00
2019-03-26T10:47:49.296Z,4756.00
2019-03-26T10:48:48.973Z,4848.00
2019-03-26T10:49:48.245Z,4420.00
2019-03-26T10:51:48.250Z,3992.00
2019-03-26T10:52:48.264Z,3892.00
2019-03-26T10:53:48.277Z,4272.00
2019-03-26T10:54:48.285Z,4804.00
2019-03-26T10:55:48.308Z,5248.00
2019-03-26T10:56:48.323Z,5736.00
2019-03-26T10:57:48.327Z,6100.00
2019-03-26T10:58:49.925Z,5908.00
2019-03-26T10:59:48.445Z,5756.00
2019-03-26T11:00:48.369Z,5452.00
2019-03-26T11:01:48.389Z,5112.00
2019-03-26T11:02:48.413Z,4956.00
2019-03-26T11:03:48.411Z,4652.00
2019-03-26T11:04:48.427Z,4432.00
2019-03-26T11:05:48.435Z,4592.00
2019-03-26T11:06:48.443Z,5112.00
2019-03-26T11:07:48.469Z,5420.00
2019-03-26T11:08:48.586Z,5104.00
2019-03-26T11:09:48.667Z,4160.00
2019-03-26T11:10:48.504Z,3752.00
2019-03-26T11:11:48.522Z,3388.00
2019-03-26T11:12:48.636Z,3212.00
2019-03-26T11:13:48.555Z,3204.00
2019-03-26T11:14:48.570Z,3012.00
2019-03-26T11:15:48.842Z,2884.00
2019-03-26T11:16:48.583Z,2748.00
2019-03-26T11:17:48.976Z,2588.00
2019-03-26T11:18:49.690Z,2224.00
2019-03-26T11:19:48.908Z,2164.00
2019-03-26T11:21:49.657Z,2380.00
2019-03-26T11:22:48.754Z,2672.00
2019-03-26T11:23:48.707Z,2548.00
2019-03-26T11:24:49.523Z,2112.00
2019-03-26T11:26:48.727Z,1696.00
2019-03-26T11:27:48.735Z,1972.00
2019-03-26T11:28:48.759Z,2284.00
2019-03-26T11:29:48.851Z,2308.00
2019-03-26T11:30:48.818Z,2444.00
2019-03-26T11:31:49.425Z,2800.00
2019-03-26T11:32:48.864Z,2964.00
2019-03-26T11:33:48.926Z,3128.00
2019-03-26T11:34:48.832Z,3288.00
2019-03-26T11:35:49.413Z,3396.00
2019-03-26T11:36:48.895Z,3504.00
2019-03-26T11:37:48.851Z,3636.00
2019-03-26T11:38:48.863Z,3880.00
2019-03-26T11:40:48.896Z,4660.00
2019-03-26T11:41:48.902Z,4920.00
2019-03-26T11:42:48.936Z,5144.00
2019-03-26T11:43:49.413Z,5052.00
2019-03-26T11:44:48.961Z,4672.00
2019-03-26T11:45:48.968Z,4192.00
2019-03-26T11:46:49.942Z,3616.00
2019-03-26T11:47:49.004Z,2892.00
2019-03-26T11:48:49.301Z,2432.00
2019-03-26T11:49:49.012Z,2060.00
2019-03-26T11:50:49.154Z,1832.00
2019-03-26T11:51:49.468Z,1736.00
2019-03-26T11:52:49.620Z,1524.00
2019-03-26T11:53:49.125Z,1764.00
2019-03-26T11:54:49.203Z,2192.00
2019-03-26T11:55:49.297Z,2424.00
2019-03-26T11:56:49.283Z,2136.00
2019-03-26T11:57:49.108Z,1952.00
2019-03-26T11:58:49.130Z,2148.00
2019-03-26T11:59:49.140Z,2436.00
2019-03-26T12:00:49.148Z,2496.00
2019-03-26T12:01:52.191Z,2332.00
2019-03-26T12:02:49.175Z,2088.00
2019-03-26T12:03:49.184Z,2264.00
2019-03-26T12:04:49.196Z,2856.00
2019-03-26T12:05:49.210Z,3032.00
2019-03-26T12:06:51.714Z,3176.00
2019-03-26T12:07:51.120Z,3320.00
2019-03-26T12:08:49.251Z,3504.00
2019-03-26T12:09:49.271Z,3804.00
2019-03-26T12:10:49.279Z,4188.00
2019-03-26T12:11:49.641Z,4296.00
2019-03-26T12:12:49.310Z,4204.00
2019-03-26T12:13:49.531Z,4120.00
2019-03-26T12:14:49.471Z,4124.00
2019-03-26T12:15:49.369Z,4044.00
2019-03-26T12:16:49.371Z,3952.00
2019-03-26T12:17:49.367Z,3712.00
2019-03-26T12:18:49.381Z,3644.00
2019-03-26T12:19:49.386Z,3740.00
2019-03-26T12:20:49.455Z,3808.00
2019-03-26T12:21:51.535Z,3864.00
2019-03-26T12:22:49.429Z,4024.00
2019-03-26T12:23:50.078Z,4328.00
2019-03-26T12:24:50.179Z,4536.00
2019-03-26T12:26:49.986Z,4604.00
2019-03-26T12:27:49.609Z,4292.00
2019-03-26T12:28:49.509Z,3788.00
2019-03-26T12:29:49.530Z,3792.00
2019-03-26T12:30:49.609Z,3376.00
2019-03-26T12:31:49.579Z,2928.00
2019-03-26T12:32:49.559Z,3448.00
2019-03-26T12:33:49.571Z,4112.00
2019-03-26T12:34:49.583Z,3880.00
2019-03-26T12:35:49.604Z,3952.00
2019-03-26T12:36:49.623Z,3868.00
2019-03-26T12:37:49.628Z,3928.00
2019-03-26T12:38:49.635Z,3784.00
2019-03-26T12:39:59.408Z,3504.00
2019-03-26T12:40:49.663Z,3288.00
2019-03-26T12:41:49.934Z,3172.00
2019-03-26T12:42:49.690Z,3192.00
2019-03-26T12:43:49.707Z,3128.00
2019-03-26T12:44:49.735Z,2904.00
2019-03-26T12:45:49.728Z,2732.00
2019-03-26T12:46:49.743Z,2544.00
2019-03-26T12:47:51.103Z,2412.00
2019-03-26T12:48:49.782Z,2120.00
2019-03-26T12:49:49.787Z,1904.00